Time;durP1;ratioP1;P1;durP2;ratioP2;P2;SDS_P1;SDS_P2;PMS_P1;PMS_P2;Temp;Humidity;BMP_temperature;BMP_pressure;BME280_temperature;BME280_humidity;BME280_pressure;Samples;Min_cycle;Max_cycle;Signal;HPM_P1;HPM_P2
2022/09/07 00:00:17;;;;;;;4.03;3.03;;;;;;;21.66;61.70;101215.44;6306065;22;20011;-58
2022/09/07 00:02:42;;;;;;;5.70;3.60;;;;;;;21.60;61.62;101219.53;6305609;22;20404;-59
2022/09/07 00:05:08;;;;;;;5.70;3.05;;;;;;;21.56;61.19;101219.31;6305434;22;20003;-58
2022/09/07 00:07:33;;;;;;;4.18;3.10;;;;;;;21.61;61.36;101218.38;6305261;22;20007;-58
2022/09/07 00:09:59;;;;;;;4.35;2.90;;;;;;;21.56;61.37;101197.56;6306212;22;20011;-59
2022/09/07 00:12:24;;;;;;;3.75;2.80;;;;;;;21.47;61.51;101204.31;6303917;22;20011;-59
2022/09/07 00:14:49;;;;;;;3.67;2.75;;;;;;;21.40;61.92;101189.78;6305868;22;20007;-59
2022/09/07 00:17:15;;;;;;;3.88;2.90;;;;;;;21.39;61.43;101186.13;6306481;22;20035;-58
2022/09/07 00:19:43;;;;;;;3.78;2.53;;;;;;;21.35;61.49;101182.25;6308368;22;20420;-59
2022/09/07 00:22:08;;;;;;;4.40;2.75;;;;;;;21.27;61.40;101178.19;6308024;22;20090;-59
2022/09/07 00:24:33;;;;;;;4.95;2.88;;;;;;;21.30;61.20;101183.19;6306091;22;20102;-59
2022/09/07 00:26:58;;;;;;;4.28;2.55;;;;;;;21.26;61.58;101182.16;6306829;22;20004;-59
2022/09/07 00:29:24;;;;;;;3.20;2.80;;;;;;;21.28;61.38;101191.13;6308246;22;20004;-59
2022/09/07 00:31:49;;;;;;;4.55;2.97;;;;;;;21.24;61.53;101181.63;6306592;22;20101;-59
2022/09/07 00:34:14;;;;;;;4.35;2.97;;;;;;;21.17;61.28;101183.22;6306597;22;20041;-58
2022/09/07 00:36:40;;;;;;;6.40;3.38;;;;;;;21.05;61.91;101190.22;6307624;22;20007;-57
2022/09/07 00:39:05;;;;;;;5.78;3.05;;;;;;;21.05;61.81;101181.75;6306816;22;20011;-57
2022/09/07 00:41:31;;;;;;;4.93;3.40;;;;;;;21.10;61.55;101180.81;6307367;22;20011;-57
2022/09/07 00:44:18;;;;;;;5.68;3.42;;;;;;;21.00;62.43;101178.22;6307291;22;20015;-57
2022/09/07 00:46:44;;;;;;;4.57;3.38;;;;;;;21.07;61.84;101156.91;6305851;22;20336;-59
2022/09/07 00:49:13;;;;;;;7.35;3.55;;;;;;;21.09;62.21;101153.75;6306679;22;19999;-58
2022/09/07 00:51:46;;;;;;;7.28;3.53;;;;;;;21.00;61.95;101147.19;6306858;22;20008;-58
2022/09/07 00:54:17;;;;;;;3.67;3.22;;;;;;;21.01;61.83;101141.22;6306178;22;20021;-59
2022/09/07 00:56:45;;;;;;;4.95;3.33;;;;;;;20.99;61.61;101134.22;6306859;22;20335;-58
2022/09/07 00:59:14;;;;;;;3.50;3.20;;;;;;;20.96;61.87;101132.88;6306721;22;20007;-58
2022/09/07 01:01:39;;;;;;;4.82;3.20;;;;;;;20.92;62.06;101129.00;6306308;22;20030;-59
2022/09/07 01:04:06;;;;;;;4.50;3.40;;;;;;;20.84;62.37;101127.78;6306781;22;20427;-58
2022/09/07 01:06:34;;;;;;;4.78;3.65;;;;;;;20.84;62.57;101149.50;6306403;22;20014;-58
2022/09/07 01:09:06;;;;;;;4.65;3.75;;;;;;;20.83;62.24;101148.69;6306712;22;20035;-58
2022/09/07 01:11:33;;;;;;;6.07;3.65;;;;;;;20.81;62.40;101141.66;6305912;22;20007;-58
2022/09/07 01:14:00;;;;;;;4.68;3.47;;;;;;;20.80;62.54;101129.56;6306062;22;20046;-58
2022/09/07 01:16:43;;;;;;;4.80;3.42;;;;;;;20.80;62.58;101131.53;6306321;22;20423;-59
2022/09/07 01:19:43;;;;;;;3.78;3.25;;;;;;;20.92;61.69;101133.81;6306990;22;20555;-58
2022/09/07 01:22:24;;;;;;;4.90;3.40;;;;;;;20.76;62.22;101141.78;6305570;22;20057;-58
2022/09/07 01:25:25;;;;;;;4.15;3.75;;;;;;;20.77;62.20;101152.75;6307272;22;20358;-59
2022/09/07 01:28:04;;;;;;;4.28;3.22;;;;;;;20.74;62.44;101147.72;6304555;22;20015;-60
2022/09/07 01:30:33;;;;;;;5.00;3.30;;;;;;;20.65;62.97;101143.97;6306561;22;20323;-58
2022/09/07 01:33:19;;;;;;;3.63;3.30;;;;;;;20.60;62.77;101152.56;6306605;22;20082;-58
2022/09/07 01:35:53;;;;;;;5.00;3.55;;;;;;;20.64;62.63;101147.13;6305913;22;20435;-58
2022/09/07 01:38:21;;;;;;;3.28;3.00;;;;;;;20.56;63.33;101143.88;6305426;22;20010;-59
2022/09/07 01:41:03;;;;;;;4.55;3.05;;;;;;;20.73;62.51;101154.53;6307083;22;20011;-58
2022/09/07 01:43:48;;;;;;;3.55;3.08;;;;;;;20.59;62.67;101143.25;6305157;22;20011;-58
2022/09/07 01:46:19;;;;;;;6.07;3.40;;;;;;;20.53;63.22;101152.13;6306773;22;20138;-58
2022/09/07 01:48:47;;;;;;;5.18;3.35;;;;;;;20.52;63.38;101142.00;6305531;22;20030;-58
2022/09/07 01:51:12;;;;;;;4.10;3.28;;;;;;;20.51;63.31;101137.50;6306283;22;20003;-59
2022/09/07 01:53:51;;;;;;;5.32;3.40;;;;;;;20.50;63.55;101136.66;6307224;22;20003;-58
2022/09/07 01:56:25;;;;;;;3.55;3.08;;;;;;;20.40;63.94;101147.31;6305833;22;20686;-58
2022/09/07 01:59:03;;;;;;;4.05;3.63;;;;;;;20.37;63.63;101148.75;6306606;22;20018;-58
2022/09/07 02:01:42;;;;;;;5.25;3.70;;;;;;;20.38;63.65;101144.78;6306480;22;20427;-58
2022/09/07 02:04:12;;;;;;;5.13;3.60;;;;;;;20.28;64.24;101147.81;6305238;22;20034;-58
2022/09/07 02:06:45;;;;;;;4.90;3.28;;;;;;;20.32;64.32;101149.69;6306328;22;19999;-58
2022/09/07 02:09:24;;;;;;;4.25;3.60;;;;;;;20.27;63.77;101146.94;6306939;22;20014;-58
2022/09/07 02:11:49;;;;;;;6.10;3.30;;;;;;;20.27;64.08;101146.94;6306440;22;20010;-58
2022/09/07 02:14:29;;;;;;;3.85;3.40;;;;;;;20.25;63.83;101135.16;6305936;22;20007;-58
2022/09/07 02:17:00;;;;;;;3.90;3.25;;;;;;;20.21;64.40;101148.22;6305519;22;20085;-58
2022/09/07 02:19:33;;;;;;;4.10;3.35;;;;;;;20.19;64.17;101136.41;6306911;22;20337;-59
2022/09/07 02:22:04;;;;;;;4.20;3.40;;;;;;;20.17;64.50;101138.72;6305507;22;20030;-58
2022/09/07 02:24:36;;;;;;;4.10;3.45;;;;;;;20.17;64.44;101133.06;6305492;22;20438;-58
2022/09/07 02:27:04;;;;;;;;;;;;;;;20.44;62.39;101139.88;6306200;22;19999;-58
2022/09/07 02:29:31;;;;;;;4.20;3.70;;;;;;;20.14;64.06;101139.31;6306004;22;19906;-58
2022/09/07 02:31:56;;;;;;;4.05;3.65;;;;;;;20.09;64.25;101136.59;6305712;22;20065;-58
2022/09/07 02:34:21;;;;;;;4.25;3.40;;;;;;;20.06;64.49;101140.03;6305550;22;20008;-58
2022/09/07 02:36:48;;;;;;;4.40;3.33;;;;;;;20.03;64.57;101140.66;6306518;22;20031;-58
2022/09/07 02:39:13;;;;;;;4.95;3.38;;;;;;;20.03;64.65;101144.31;6306153;22;20064;-58
2022/09/07 02:41:43;;;;;;;4.63;3.92;;;;;;;19.97;65.07;101144.72;6306840;22;20427;-58
2022/09/07 02:44:14;;;;;;;5.65;3.53;;;;;;;19.98;64.91;101143.56;6306162;22;20061;-59
2022/09/07 02:46:49;;;;;;;5.18;3.42;;;;;;;19.99;64.88;101148.88;6278795;22;20007;-59
2022/09/07 02:49:43;;;;;;;4.45;3.90;;;;;;;19.99;64.28;101148.88;6305928;22;20031;-59
2022/09/07 02:52:44;;;;;;;3.70;3.30;;;;;;;19.96;64.21;101140.22;6305335;22;20007;-58
2022/09/07 02:55:36;;;;;;;4.20;3.30;;;;;;;19.92;64.48;101136.34;6233566;22;20014;-58
2022/09/07 02:58:04;;;;;;;5.03;3.65;;;;;;;19.86;64.66;101144.91;6306068;22;20057;-58
2022/09/07 03:00:34;;;;;;;3.85;3.50;;;;;;;19.78;65.33;101133.50;6303922;22;20498;-58
2022/09/07 03:03:07;;;;;;;4.95;3.97;;;;;;;19.89;64.95;101149.09;6305154;22;20331;-58
2022/09/07 03:05:49;;;;;;;5.28;4.20;;;;;;;19.87;64.97;101154.19;6306147;22;20495;-58
2022/09/07 03:08:22;;;;;;;5.25;4.10;;;;;;;19.80;65.29;101151.75;6303200;22;20007;-58
2022/09/07 03:10:49;;;;;;;5.28;4.38;;;;;;;19.76;65.58;101145.06;6306250;22;20509;-58
2022/09/07 03:13:26;;;;;;;4.88;4.10;;;;;;;19.79;65.61;101152.91;6304949;22;20003;-58
2022/09/07 03:15:51;;;;;;;6.78;4.53;;;;;;;19.80;65.74;101140.47;6305138;22;20015;-58
2022/09/07 03:18:17;;;;;;;5.07;4.03;;;;;;;19.83;66.03;101144.66;6306022;22;20031;-58
2022/09/07 03:20:45;;;;;;;6.57;4.45;;;;;;;19.80;66.25;101140.47;6304879;22;20014;-58
2022/09/07 03:23:11;;;;;;;6.20;4.15;;;;;;;19.84;66.15;101130.28;6305056;22;20485;-59
2022/09/07 03:25:37;;;;;;;4.97;4.38;;;;;;;19.83;66.09;101128.59;6306233;22;20008;-58
2022/09/07 03:28:02;;;;;;;5.03;4.15;;;;;;;19.85;66.40;101131.97;6304569;22;20003;-58
2022/09/07 03:30:28;;;;;;;5.38;4.88;;;;;;;19.83;66.17;101134.25;6306324;22;20320;-59
2022/09/07 03:32:53;;;;;;;4.30;3.90;;;;;;;19.84;66.43;101143.53;6304646;22;20003;-58
2022/09/07 03:35:19;;;;;;;5.20;4.40;;;;;;;19.82;66.32;101146.66;6305353;22;20077;-58
2022/09/07 03:37:44;;;;;;;5.03;4.47;;;;;;;19.83;66.58;101128.59;6304838;22;20007;-59
2022/09/07 03:40:12;;;;;;;6.35;4.13;;;;;;;19.85;66.72;101126.31;6306280;22;20014;-59
2022/09/07 03:42:38;;;;;;;5.30;4.80;;;;;;;19.81;66.75;101130.06;6304570;22;20012;-59
2022/09/07 03:45:05;;;;;;;4.65;4.00;;;;;;;19.78;67.08;101137.16;6305833;22;20098;-59
2022/09/07 03:47:33;;;;;;;6.30;4.93;;;;;;;19.81;66.90;101152.59;6304566;22;20098;-59
2022/09/07 03:49:58;;;;;;;6.35;4.35;;;;;;;19.83;66.81;101148.31;6305187;22;20057;-58
2022/09/07 03:52:24;;;;;;;5.50;4.78;;;;;;;19.87;66.63;101145.72;6308291;22;20419;-58
2022/09/07 03:54:49;;;;;;;6.53;4.55;;;;;;;19.83;66.88;101134.25;6308200;22;20003;-59
2022/09/07 03:57:19;;;;;;;6.43;4.85;;;;;;;19.82;67.01;101128.94;6307043;22;20004;-59
2022/09/07 03:59:44;;;;;;;6.72;4.60;;;;;;;19.80;66.84;101128.38;6308310;22;20003;-59
2022/09/07 04:02:10;;;;;;;8.27;4.90;;;;;;;19.75;66.68;101114.41;6307646;22;20003;-59
2022/09/07 04:04:35;;;;;;;6.97;4.90;;;;;;;19.72;66.82;101115.00;6306880;22;20033;-59
2022/09/07 04:07:00;;;;;;;6.15;4.95;;;;;;;19.72;66.92;101110.22;6307168;22;20495;-59
2022/09/07 04:09:26;;;;;;;4.82;4.43;;;;;;;19.73;66.96;101106.28;6305936;22;20031;-59
2022/09/07 04:11:51;;;;;;;7.50;5.18;;;;;;;19.69;66.86;101096.78;6307828;22;20017;-59
2022/09/07 04:14:16;;;;;;;5.45;4.93;;;;;;;19.69;66.72;101093.94;6307463;22;19995;-59
2022/09/07 04:16:44;;;;;;;5.45;4.90;;;;;;;19.64;66.97;101088.38;6307548;22;20382;-59
2022/09/07 04:19:09;;;;;;;6.50;5.32;;;;;;;19.63;67.07;101083.91;6307059;22;20053;-59
2022/09/07 04:21:34;;;;;;;6.03;4.70;;;;;;;19.61;67.24;101092.69;6307508;22;19999;-58
2022/09/07 04:24:00;;;;;;;6.47;5.25;;;;;;;19.61;67.11;101081.41;6306539;22;20003;-58
2022/09/07 04:26:31;;;;;;;7.82;5.22;;;;;;;19.60;66.78;101082.50;6306781;22;20049;-58
2022/09/07 04:28:57;;;;;;;7.72;5.00;;;;;;;19.60;66.87;101101.38;6308535;22;20017;-58
2022/09/07 04:31:23;;;;;;;5.70;5.18;;;;;;;19.55;67.04;101109.94;6306381;22;20014;-58
2022/09/07 04:33:49;;;;;;;6.28;5.57;;;;;;;19.58;67.12;101115.78;6307509;22;20003;-59
2022/09/07 04:36:17;;;;;;;5.63;4.57;;;;;;;19.53;67.13;101118.69;6307810;22;20014;-59
2022/09/07 04:38:42;;;;;;;8.13;5.82;;;;;;;19.52;67.15;101116.16;6306667;22;20007;-59
2022/09/07 04:41:12;;;;;;;9.38;5.22;;;;;;;19.52;66.85;101113.34;6306870;22;20053;-59
2022/09/07 04:43:38;;;;;;;10.52;5.38;;;;;;;19.50;66.94;101115.66;6307615;22;20033;-59
2022/09/07 04:46:12;;;;;;;7.00;5.47;;;;;;;19.43;66.79;101113.22;6305954;22;20050;-59
2022/09/07 04:48:38;;;;;;;9.20;5.65;;;;;;;19.45;67.09;101121.34;6307545;22;20030;-59
2022/09/07 04:51:08;;;;;;;9.77;5.82;;;;;;;19.42;67.08;101114.38;6306582;22;20091;-59
2022/09/07 04:53:34;;;;;;;13.05;5.18;;;;;;;19.42;67.31;101111.56;6306312;22;20489;-59
2022/09/07 04:56:00;;;;;;;7.90;5.70;;;;;;;19.41;67.34;101101.41;6306997;22;20007;-58
2022/09/07 04:58:25;;;;;;;10.02;5.50;;;;;;;19.41;67.57;101109.03;6306227;22;20033;-59
2022/09/07 05:00:51;;;;;;;9.98;6.07;;;;;;;19.42;67.44;101107.91;6305726;22;20011;-58
2022/09/07 05:03:16;;;;;;;8.70;5.55;;;;;;;19.42;67.59;101110.72;6305997;22;20437;-59
2022/09/07 05:05:42;;;;;;;8.02;6.22;;;;;;;19.40;67.51;101105.38;6306307;22;20569;-58
2022/09/07 05:08:07;;;;;;;7.03;5.72;;;;;;;19.43;67.69;101098.31;6306282;22;20065;-57
2022/09/07 05:10:32;;;;;;;6.70;6.00;;;;;;;19.37;67.84;101091.91;6307437;22;20007;-58
2022/09/07 05:12:58;;;;;;;9.07;6.43;;;;;;;19.34;67.47;101093.38;6305537;22;20118;-58
2022/09/07 05:15:23;;;;;;;7.00;6.30;;;;;;;19.44;67.55;101097.16;6307313;22;20098;-58
2022/09/07 05:17:50;;;;;;;7.00;6.25;;;;;;;19.38;67.80;101100.06;6306628;22;20304;-58
2022/09/07 05:20:15;;;;;;;7.57;6.18;;;;;;;19.41;67.98;101094.94;6305557;22;20003;-58
2022/09/07 05:22:40;;;;;;;6.93;6.18;;;;;;;19.44;67.28;101099.97;6306104;22;20331;-58
2022/09/07 05:25:07;;;;;;;7.10;6.05;;;;;;;19.42;67.69;101102.28;6306875;22;20007;-58
2022/09/07 05:27:32;;;;;;;7.38;6.32;;;;;;;19.40;67.53;101113.00;6304668;22;20003;-58
2022/09/07 05:29:57;;;;;;;7.88;6.78;;;;;;;19.38;67.36;101094.44;6306850;22;20086;-58
2022/09/07 05:32:23;;;;;;;7.85;6.50;;;;;;;19.33;67.56;101107.75;6306521;22;20415;-59
2022/09/07 05:34:49;;;;;;;9.95;7.38;;;;;;;19.32;67.45;101095.66;6306299;22;20094;-59
2022/09/07 05:37:15;;;;;;;7.72;6.95;;;;;;;19.32;67.70;101098.47;6306390;22;20031;-59
2022/09/07 05:39:40;;;;;;;8.30;6.65;;;;;;;19.25;68.05;101106.44;6306707;22;20446;-59
2022/09/07 05:42:08;;;;;;;8.98;7.80;;;;;;;19.25;67.94;101109.25;6305504;22;20010;-58
2022/09/07 05:44:33;;;;;;;8.85;7.70;;;;;;;19.31;67.63;101110.88;6307409;22;20447;-59
2022/09/07 05:46:59;;;;;;;11.77;9.07;;;;;;;19.24;67.85;101116.03;6306142;22;20026;-58
2022/09/07 05:49:24;;;;;;;11.00;8.65;;;;;;;19.24;67.92;101107.59;6305026;22;20035;-59
2022/09/07 05:51:49;;;;;;;9.57;8.60;;;;;;;19.25;67.79;101109.25;6306539;22;20018;-59
2022/09/07 05:54:15;;;;;;;10.23;9.00;;;;;;;19.25;67.98;101112.06;6304561;22;20411;-59
2022/09/07 05:56:41;;;;;;;10.27;8.85;;;;;;;19.22;68.41;101118.34;6305767;22;20063;-59
2022/09/07 05:59:09;;;;;;;11.77;8.77;;;;;;;19.27;68.40;101121.06;6304954;22;20492;-59
2022/09/07 06:01:34;;;;;;;11.02;9.35;;;;;;;19.29;68.26;101130.03;6306121;22;20332;-59
2022/09/07 06:04:00;;;;;;;11.45;10.20;;;;;;;19.33;68.05;101135.88;6304500;22;20003;-59
2022/09/07 06:06:25;;;;;;;11.52;10.05;;;;;;;19.25;68.49;101128.97;6306429;22;20092;-59
2022/09/07 06:08:52;;;;;;;12.95;10.27;;;;;;;19.34;68.47;101135.59;6305782;22;20017;-59
2022/09/07 06:11:20;;;;;;;12.50;9.73;;;;;;;19.26;68.58;101135.47;6305561;22;20003;-59
2022/09/07 06:13:46;;;;;;;14.27;10.50;;;;;;;19.34;68.32;101137.56;6305656;22;20026;-59
2022/09/07 06:16:12;;;;;;;12.43;11.15;;;;;;;19.44;68.15;101128.13;6304719;22;20003;-59
2022/09/07 06:18:40;;;;;;;13.02;10.90;;;;;;;19.42;68.13;101134.06;6306356;22;20003;-59
2022/09/07 06:21:20;;;;;;;13.52;12.02;;;;;;;19.40;68.22;101130.72;6305593;22;20003;-59
2022/09/07 06:23:46;;;;;;;14.55;12.20;;;;;;;19.42;68.58;101133.25;6303568;22;20011;-59
2022/09/07 06:26:13;;;;;;;15.60;12.50;;;;;;;19.42;68.61;101144.50;6306079;22;20007;-57
2022/09/07 06:28:41;;;;;;;15.02;12.85;;;;;;;19.40;68.79;101141.97;6305504;22;20038;-57
2022/09/07 06:31:09;;;;;;;17.42;12.48;;;;;;;19.47;68.71;101152.84;6305130;22;20011;-58
2022/09/07 06:33:35;;;;;;;18.13;14.93;;;;;;;19.42;68.64;101156.59;6305428;22;20003;-58
2022/09/07 06:36:06;;;;;;;18.25;14.70;;;;;;;19.47;68.62;101152.84;6304505;22;20015;-58
2022/09/07 06:38:35;;;;;;;16.65;14.45;;;;;;;19.46;69.23;101151.19;6303384;22;19999;-58
2022/09/07 06:41:23;;;;;;;18.92;15.32;;;;;;;19.49;68.78;101159.00;6305738;22;20011;-58
2022/09/07 06:43:49;;;;;;;20.17;15.95;;;;;;;19.42;68.92;101161.38;6305179;22;20319;-58
2022/09/07 06:46:15;;;;;;;24.30;16.83;;;;;;;19.35;69.40;101162.59;6305225;22;19999;-58
2022/09/07 06:48:40;;;;;;;21.85;18.08;;;;;;;19.36;69.12;101157.78;6304914;22;20019;-57
2022/09/07 06:51:14;;;;;;;22.27;19.15;;;;;;;19.37;69.21;101163.13;6305374;22;20377;-58
2022/09/07 06:53:40;;;;;;;21.83;18.42;;;;;;;19.41;69.63;101162.50;6303262;22;20434;-58
2022/09/07 06:56:08;;;;;;;22.30;20.00;;;;;;;19.39;69.69;101162.81;6305182;22;20007;-58
2022/09/07 06:58:34;;;;;;;23.75;19.77;;;;;;;19.47;69.79;101164.13;6305209;22;20482;-58
2022/09/07 07:01:13;;;;;;;27.13;21.17;;;;;;;19.45;69.70;101158.78;6305554;22;20027;-57
2022/09/07 07:03:40;;;;;;;23.17;20.33;;;;;;;19.54;69.71;101168.22;6305970;22;20074;-58
2022/09/07 07:06:06;;;;;;;28.35;22.00;;;;;;;19.50;69.92;101167.16;6304448;22;20000;-58
2022/09/07 07:08:31;;;;;;;25.20;22.48;;;;;;;19.56;69.53;101162.28;6305720;22;20094;-58
2022/09/07 07:11:10;;;;;;;27.15;22.30;;;;;;;19.57;69.67;101164.78;6304776;22;20053;-58
2022/09/07 07:13:36;;;;;;;31.48;25.20;;;;;;;19.61;70.09;101167.84;6303488;22;20450;-58
2022/09/07 07:16:06;;;;;;;27.60;24.58;;;;;;;19.69;69.69;101171.94;6305575;22;20073;-58
2022/09/07 07:18:32;;;;;;;27.70;24.73;;;;;;;19.73;69.91;101165.41;6306037;22;20034;-58
2022/09/07 07:21:01;;;;;;;29.35;25.42;;;;;;;19.77;70.05;101155.19;6304369;22;20081;-58
2022/09/07 07:23:26;;;;;;;30.27;24.90;;;;;;;19.92;69.72;101170.16;6304307;22;20476;-58
2022/09/07 07:25:51;;;;;;;30.08;25.35;;;;;;;20.00;69.74;101164.66;6306605;22;20088;-58
2022/09/07 07:28:17;;;;;;;32.45;26.95;;;;;;;20.05;70.02;101172.19;6306424;22;20011;-58
2022/09/07 07:30:42;;;;;;;32.97;27.67;;;;;;;20.04;69.80;101176.13;6307067;22;20007;-58
2022/09/07 07:33:30;;;;;;;31.35;26.77;;;;;;;20.01;69.31;101179.59;6306544;22;20011;-58
2022/09/07 07:36:11;;;;;;;30.88;25.98;;;;;;;20.06;69.25;101179.50;6308272;22;20004;-58
2022/09/07 07:38:48;;;;;;;31.27;27.77;;;;;;;19.98;69.93;101181.03;6306458;22;20019;-58
2022/09/07 07:41:15;;;;;;;34.45;27.23;;;;;;;20.04;70.19;101174.19;6305582;22;20007;-58
2022/09/07 07:43:40;;;;;;;35.20;25.88;;;;;;;20.05;70.10;101186.28;6306228;22;20006;-59
2022/09/07 07:46:13;;;;;;;28.27;25.27;;;;;;;20.12;68.56;101186.69;6306446;22;20035;-58
2022/09/07 07:48:38;;;;;;;8.07;5.97;;;;;;;20.41;64.75;101182.78;6305542;22;20018;-58
2022/09/07 07:51:06;;;;;;;7.68;6.75;;;;;;;20.50;64.45;101183.75;6307396;22;20060;-58
2022/09/07 07:53:34;;;;;;;6.40;5.80;;;;;;;20.64;63.63;101187.44;6305612;22;20003;-57
2022/09/07 07:56:00;;;;;;;8.55;7.00;;;;;;;20.84;63.59;101189.00;6306642;22;19999;-58
2022/09/07 07:58:27;;;;;;;12.45;11.15;;;;;;;20.89;64.05;101191.72;6307183;22;20082;-58
2022/09/07 08:00:54;;;;;;;16.02;12.85;;;;;;;21.00;64.22;101192.34;6307829;22;20078;-58
2022/09/07 08:03:21;;;;;;;9.48;8.27;;;;;;;21.22;63.41;101185.91;6305603;22;20004;-58
2022/09/07 08:05:46;;;;;;;10.95;8.20;;;;;;;21.31;63.36;101193.31;6307210;22;20019;-58
2022/09/07 08:08:11;;;;;;;10.48;8.57;;;;;;;21.41;63.00;101194.25;6306796;22;20034;-58
2022/09/07 08:10:37;;;;;;;10.25;8.45;;;;;;;21.48;62.98;101189.84;6305400;22;20011;-58
2022/09/07 08:13:03;;;;;;;11.57;8.98;;;;;;;21.53;62.81;101197.34;6306382;22;20003;-58
2022/09/07 08:15:29;;;;;;;12.73;11.52;;;;;;;21.51;62.96;101205.34;6307731;22;20415;-58
2022/09/07 08:17:55;;;;;;;9.70;8.68;;;;;;;21.60;63.03;101196.94;6307210;22;20006;-59
2022/09/07 08:20:20;;;;;;;15.23;13.55;;;;;;;21.54;63.77;101201.88;6307404;22;20073;-58
2022/09/07 08:22:48;;;;;;;12.60;11.13;;;;;;;21.59;63.58;101207.41;6306672;22;20424;-58
2022/09/07 08:25:13;;;;;;;10.05;8.93;;;;;;;21.66;62.46;101204.97;6307424;22;20017;-58
2022/09/07 08:27:39;;;;;;;9.00;8.10;;;;;;;21.73;62.69;101199.72;6308067;22;20086;-58
2022/09/07 08:30:04;;;;;;;10.80;9.77;;;;;;;21.76;63.50;101210.34;6306653;22;20458;-58
2022/09/07 08:32:30;;;;;;;11.35;7.53;;;;;;;21.86;62.87;101205.63;6307335;22;20003;-58
2022/09/07 08:34:55;;;;;;;9.23;8.07;;;;;;;21.89;62.50;101204.97;6306712;22;20003;-58
2022/09/07 08:37:20;;;;;;;10.20;8.40;;;;;;;21.94;62.49;101213.34;6305119;22;20442;-58
2022/09/07 08:39:46;;;;;;;11.13;8.48;;;;;;;21.98;62.51;101215.19;6307239;22;20077;-58
2022/09/07 08:42:23;;;;;;;8.13;7.30;;;;;;;22.02;62.17;101204.91;6307229;22;20082;-58
2022/09/07 08:44:59;;;;;;;7.95;6.65;;;;;;;22.08;61.91;101219.72;6305239;22;20015;-58
2022/09/07 08:47:43;;;;;;;12.98;11.68;;;;;;;22.06;62.37;101211.59;6304111;22;20022;-58
2022/09/07 08:50:27;;;;;;;9.13;7.72;;;;;;;22.12;62.15;101214.28;6303785;22;20031;-58
2022/09/07 08:53:10;;;;;;;7.50;6.80;;;;;;;22.15;61.85;101224.97;6304611;22;20003;-59
2022/09/07 08:55:50;;;;;;;11.32;9.52;;;;;;;22.16;62.71;101218.97;6303537;22;20177;-59
2022/09/07 08:58:26;;;;;;;10.13;8.57;;;;;;;22.18;62.52;101215.84;6305249;22;20082;-59
2022/09/07 09:00:57;;;;;;;12.20;9.82;;;;;;;22.19;62.50;101214.69;6305548;22;20007;-59
2022/09/07 09:03:29;;;;;;;15.38;13.48;;;;;;;22.18;63.76;101213.03;6304952;22;20027;-58
2022/09/07 09:06:17;;;;;;;10.75;9.52;;;;;;;22.26;62.85;101215.06;6304658;22;20367;-58
2022/09/07 09:09:08;;;;;;;9.98;6.68;;;;;;;22.33;61.72;101223.09;6304588;22;20034;-58
2022/09/07 09:11:42;;;;;;;10.85;9.40;;;;;;;22.26;61.90;101221.56;6304553;22;20450;-58
2022/09/07 09:14:46;;;;;;;8.02;7.22;;;;;;;22.37;62.11;101224.13;6304301;22;20007;-58
2022/09/07 09:17:17;;;;;;;11.20;9.57;;;;;;;22.30;61.64;101216.09;6149851;23;20005;-59
2022/09/07 09:19:54;;;;;;;6.93;5.57;;;;;;;22.38;60.92;101220.13;6281188;22;20053;-58
2022/09/07 09:22:22;;;;;;;14.18;11.07;;;;;;;22.33;61.97;101214.63;6305641;22;20042;-59
2022/09/07 09:24:52;;;;;;;11.23;9.60;;;;;;;22.39;62.39;101213.31;6304575;22;20384;-59
2022/09/07 09:27:17;;;;;;;11.23;8.43;;;;;;;22.43;62.03;101218.00;6301822;22;20519;-58
2022/09/07 09:29:42;;;;;;;6.70;4.93;;;;;;;22.46;60.46;101219.34;6304814;22;20026;-58
2022/09/07 09:32:31;;;;;;;8.35;7.10;;;;;;;22.48;60.88;101219.88;6303777;22;20010;-58
2022/09/07 09:35:12;;;;;;;6.85;5.88;;;;;;;22.43;60.08;101214.31;6304012;22;20065;-58
2022/09/07 09:37:39;;;;;;;7.03;5.28;;;;;;;22.42;59.74;101218.31;6305025;22;20011;-58
2022/09/07 09:40:08;;;;;;;5.78;4.75;;;;;;;22.39;60.06;101210.47;6304003;22;20026;-59
2022/09/07 09:42:34;;;;;;;9.38;4.97;;;;;;;22.38;59.39;101217.31;6305578;22;20003;-59
2022/09/07 09:45:25;;;;;;;7.45;5.55;;;;;;;22.41;60.20;101220.31;6304612;22;20003;-60
2022/09/07 09:47:52;;;;;;;8.15;5.65;;;;;;;22.45;59.98;101215.69;6259525;22;1036804;-59
2022/09/07 09:50:50;;;;;;;5.80;4.00;;;;;;;22.59;60.02;101218.41;6305584;22;20033;-60
2022/09/07 09:53:34;;;;;;;6.78;4.07;;;;;;;22.68;59.74;101213.63;6305256;22;20017;-59
2022/09/07 09:56:02;;;;;;;6.43;3.58;;;;;;;22.75;59.21;101218.81;6304192;22;20101;-59
2022/09/07 09:58:39;;;;;;;5.88;3.28;;;;;;;22.79;58.45;101219.81;6304026;22;20003;-57
2022/09/07 10:01:20;;;;;;;8.85;3.60;;;;;;;22.89;58.35;101213.03;6305463;22;20082;-57
2022/09/07 10:03:46;;;;;;;7.28;4.20;;;;;;;22.90;57.21;101212.69;6304909;22;20088;-58
2022/09/07 10:06:16;;;;;;;5.55;3.13;;;;;;;22.93;57.49;101219.75;6305347;22;20003;-60
2022/09/07 10:09:00;;;;;;;5.82;3.10;;;;;;;22.99;58.03;101210.78;6304732;22;20431;-58
2022/09/07 10:11:46;;;;;;;7.15;3.40;;;;;;;23.05;57.66;101211.47;6306645;22;20023;-59
2022/09/07 10:14:26;;;;;;;7.57;2.80;;;;;;;23.08;57.82;101201.47;6305007;22;20003;-59
2022/09/07 10:16:51;;;;;;;8.52;3.78;;;;;;;23.10;56.77;101204.81;6303563;22;20003;-59
2022/09/07 10:19:37;;;;;;;8.00;3.00;;;;;;;23.16;57.15;101203.50;6305605;22;20011;-59
2022/09/07 10:22:20;;;;;;;5.78;3.00;;;;;;;23.24;57.33;101194.19;6306956;22;20053;-59
2022/09/07 10:24:46;;;;;;;7.72;2.58;;;;;;;23.27;55.78;101190.69;6305318;22;20419;-59
2022/09/07 10:27:29;;;;;;;9.02;3.05;;;;;;;23.31;56.47;101194.53;6305194;22;20010;-59
2022/09/07 10:29:55;;;;;;;6.82;2.25;;;;;;;23.41;55.36;101182.03;6304842;22;19999;-59
2022/09/07 10:32:40;;;;;;;5.03;2.42;;;;;;;23.42;55.25;101200.69;6305346;22;20006;-61
2022/09/07 10:35:20;;;;;;;6.47;2.25;;;;;;;23.43;55.08;101185.38;6305148;22;20003;-59
2022/09/07 10:38:02;;;;;;;9.85;2.58;;;;;;;23.53;55.65;101182.19;6304805;22;20435;-59
2022/09/07 10:40:36;;;;;;;8.02;2.50;;;;;;;23.60;55.58;101184.53;6304755;22;20006;-59
2022/09/07 10:43:11;;;;;;;8.38;2.13;;;;;;;23.56;55.08;101187.22;6305896;22;20003;-58
2022/09/07 10:45:55;;;;;;;4.30;1.95;;;;;;;23.57;54.80;101183.19;6305081;22;20005;-58
2022/09/07 10:48:30;;;;;;;6.10;1.92;;;;;;;23.54;53.85;101183.88;6303715;22;20041;-59
2022/09/07 10:51:02;;;;;;;6.03;2.15;;;;;;;23.50;53.14;101177.19;6304480;22;20090;-59
2022/09/07 10:53:37;;;;;;;6.57;2.53;;;;;;;23.50;52.93;101180.88;6304803;22;20372;-59
2022/09/07 10:56:11;;;;;;;9.82;2.38;;;;;;;23.48;53.62;101177.53;6304367;22;20765;-60
2022/09/07 10:58:36;;;;;;;5.32;1.83;;;;;;;23.41;54.12;101171.53;6303745;22;20330;-59
2022/09/07 11:01:22;;;;;;;5.73;2.17;;;;;;;23.40;53.85;101174.72;6305892;22;20035;-60
2022/09/07 11:04:04;;;;;;;8.00;2.42;;;;;;;23.45;53.93;101166.88;6305535;22;20245;-59
2022/09/07 11:06:38;;;;;;;6.38;2.05;;;;;;;23.49;54.13;101167.03;6304757;22;20328;-59
2022/09/07 11:09:31;;;;;;;6.70;2.25;;;;;;;23.49;54.46;101169.88;6305245;22;20061;-60
2022/09/07 11:12:20;;;;;;;5.22;2.00;;;;;;;23.51;53.81;101178.88;6303988;22;20030;-60
2022/09/07 11:15:08;;;;;;;11.43;2.60;;;;;;;23.58;53.07;101164.19;6305585;22;20000;-59
2022/09/07 11:18:01;;;;;;;6.03;1.90;;;;;;;23.65;52.65;101161.69;6305613;22;20404;-59
2022/09/07 11:20:43;;;;;;;6.05;1.92;;;;;;;23.56;52.21;101164.53;6302808;22;20003;-59
2022/09/07 11:23:22;;;;;;;4.43;1.98;;;;;;;23.56;52.85;101156.03;6306106;22;20095;-60
2022/09/07 11:25:55;;;;;;;5.93;2.17;;;;;;;23.56;53.04;101167.38;6303555;22;20003;-60
2022/09/07 11:28:29;;;;;;;4.80;2.45;;;;;;;23.49;52.89;101164.19;6304954;22;20080;-60
2022/09/07 11:31:03;;;;;;;5.90;2.20;;;;;;;23.54;53.47;101161.22;6306037;22;20007;-60
2022/09/07 11:33:34;;;;;;;5.13;2.38;;;;;;;23.62;53.21;101165.19;6305205;22;20086;-60
2022/09/07 11:36:06;;;;;;;5.93;2.40;;;;;;;23.55;52.41;101162.06;6305168;22;20003;-60
2022/09/07 11:38:34;;;;;;;9.48;2.33;;;;;;;23.48;52.68;101162.53;6305937;22;20371;-60